Terminal Aerodrome Forecast
Issued by NWS Sterling, VA

Current Version | Previous Version | Graphics & Text | Print | Product List | Glossary On
Versions: 1 2 3 4 5 6 7 8 9 10 11 12 13 14
106
FTUS41 KLWX 141127
TAFMRB
TAF
KMRB 141127Z 1412/1512 24007KT P6SM BKN050
     FM141300 28012G24KT P6SM BKN050
     FM141500 31012G24KT P6SM BKN050
     FM142000 32012KT P6SM BKN200
     FM142300 34005KT P6SM BKN150=

USA.gov is the U.S. government's official web portal to all federal, state and local government web resources and services.